sensor_id;sensor_type;location;lat;lon;timestamp;P1;durP1;ratioP1;P2;durP2;ratioP2
23449;SDS011;11897;45.438;12.128;2023-06-10T00:02:13;5.07;;;3.57;;
23449;SDS011;11897;45.438;12.128;2023-06-10T00:04:42;4.80;;;3.00;;
23449;SDS011;11897;45.438;12.128;2023-06-10T00:07:09;3.40;;;3.00;;
23449;SDS011;11897;45.438;12.128;2023-06-10T00:09:35;6.50;;;3.00;;
23449;SDS011;11897;45.438;12.128;2023-06-10T00:12:03;5.10;;;3.30;;
23449;SDS011;11897;45.438;12.128;2023-06-10T00:14:31;4.57;;;3.50;;
23449;SDS011;11897;45.438;12.128;2023-06-10T00:16:58;5.37;;;3.70;;
23449;SDS011;11897;45.438;12.128;2023-06-10T00:19:24;6.43;;;4.30;;
23449;SDS011;11897;45.438;12.128;2023-06-10T00:21:55;6.93;;;4.70;;
23449;SDS011;11897;45.438;12.128;2023-06-10T00:24:22;7.30;;;4.87;;
23449;SDS011;11897;45.438;12.128;2023-06-10T00:26:49;7.67;;;5.53;;
23449;SDS011;11897;45.438;12.128;2023-06-10T00:29:15;7.20;;;5.33;;
23449;SDS011;11897;45.438;12.128;2023-06-10T00:31:44;7.57;;;5.83;;
23449;SDS011;11897;45.438;12.128;2023-06-10T00:34:11;7.47;;;5.80;;
23449;SDS011;11897;45.438;12.128;2023-06-10T00:36:38;9.97;;;6.67;;
23449;SDS011;11897;45.438;12.128;2023-06-10T00:39:04;13.23;;;7.73;;
23449;SDS011;11897;45.438;12.128;2023-06-10T00:41:32;10.27;;;7.27;;
23449;SDS011;11897;45.438;12.128;2023-06-10T00:44:00;10.80;;;7.17;;
23449;SDS011;11897;45.438;12.128;2023-06-10T00:46:27;9.63;;;7.10;;
23449;SDS011;11897;45.438;12.128;2023-06-10T00:48:56;9.87;;;6.97;;
23449;SDS011;11897;45.438;12.128;2023-06-10T00:51:23;14.07;;;6.77;;
23449;SDS011;11897;45.438;12.128;2023-06-10T00:53:51;12.10;;;6.63;;
23449;SDS011;11897;45.438;12.128;2023-06-10T00:56:18;12.10;;;5.63;;
23449;SDS011;11897;45.438;12.128;2023-06-10T00:58:46;8.63;;;5.40;;
23449;SDS011;11897;45.438;12.128;2023-06-10T01:01:14;10.30;;;6.40;;
23449;SDS011;11897;45.438;12.128;2023-06-10T01:03:41;9.63;;;6.50;;
23449;SDS011;11897;45.438;12.128;2023-06-10T01:06:12;11.53;;;7.10;;
23449;SDS011;11897;45.438;12.128;2023-06-10T01:08:45;13.17;;;7.03;;
23449;SDS011;11897;45.438;12.128;2023-06-10T01:11:14;7.23;;;5.27;;
23449;SDS011;11897;45.438;12.128;2023-06-10T01:13:44;8.10;;;5.23;;
23449;SDS011;11897;45.438;12.128;2023-06-10T01:16:11;9.40;;;5.17;;
23449;SDS011;11897;45.438;12.128;2023-06-10T01:18:40;8.43;;;5.50;;
23449;SDS011;11897;45.438;12.128;2023-06-10T01:21:07;8.23;;;5.00;;
23449;SDS011;11897;45.438;12.128;2023-06-10T01:23:36;11.60;;;5.70;;
23449;SDS011;11897;45.438;12.128;2023-06-10T01:26:03;9.57;;;5.90;;
23449;SDS011;11897;45.438;12.128;2023-06-10T01:28:33;8.53;;;5.13;;
23449;SDS011;11897;45.438;12.128;2023-06-10T01:31:04;8.50;;;5.30;;
23449;SDS011;11897;45.438;12.128;2023-06-10T01:33:34;7.33;;;5.30;;
23449;SDS011;11897;45.438;12.128;2023-06-10T01:36:02;8.30;;;5.57;;
23449;SDS011;11897;45.438;12.128;2023-06-10T01:38:30;9.13;;;5.03;;
23449;SDS011;11897;45.438;12.128;2023-06-10T01:40:59;12.13;;;5.93;;
23449;SDS011;11897;45.438;12.128;2023-06-10T01:43:26;9.60;;;5.10;;
23449;SDS011;11897;45.438;12.128;2023-06-10T01:45:53;8.33;;;5.17;;
23449;SDS011;11897;45.438;12.128;2023-06-10T01:48:20;9.67;;;5.10;;
23449;SDS011;11897;45.438;12.128;2023-06-10T01:50:47;6.63;;;5.10;;
23449;SDS011;11897;45.438;12.128;2023-06-10T01:53:13;8.13;;;5.43;;
23449;SDS011;11897;45.438;12.128;2023-06-10T01:55:40;7.30;;;4.97;;
23449;SDS011;11897;45.438;12.128;2023-06-10T01:58:08;7.77;;;5.57;;
23449;SDS011;11897;45.438;12.128;2023-06-10T02:00:35;7.07;;;4.87;;
23449;SDS011;11897;45.438;12.128;2023-06-10T02:03:01;9.43;;;6.03;;
23449;SDS011;11897;45.438;12.128;2023-06-10T02:05:28;10.87;;;5.87;;
23449;SDS011;11897;45.438;12.128;2023-06-10T02:07:54;10.50;;;6.07;;
23449;SDS011;11897;45.438;12.128;2023-06-10T02:10:21;11.53;;;5.83;;
23449;SDS011;11897;45.438;12.128;2023-06-10T02:12:49;9.00;;;6.27;;
23449;SDS011;11897;45.438;12.128;2023-06-10T02:15:17;10.13;;;7.27;;
23449;SDS011;11897;45.438;12.128;2023-06-10T02:17:46;10.50;;;5.70;;
23449;SDS011;11897;45.438;12.128;2023-06-10T02:20:14;9.67;;;5.97;;
23449;SDS011;11897;45.438;12.128;2023-06-10T02:22:41;8.83;;;5.80;;
23449;SDS011;11897;45.438;12.128;2023-06-10T02:25:08;7.60;;;5.37;;
23449;SDS011;11897;45.438;12.128;2023-06-10T02:27:35;8.43;;;5.87;;
23449;SDS011;11897;45.438;12.128;2023-06-10T02:30:02;7.63;;;5.17;;
23449;SDS011;11897;45.438;12.128;2023-06-10T02:32:32;9.93;;;5.60;;
23449;SDS011;11897;45.438;12.128;2023-06-10T02:35:00;7.60;;;5.07;;
23449;SDS011;11897;45.438;12.128;2023-06-10T02:37:28;7.53;;;4.70;;
23449;SDS011;11897;45.438;12.128;2023-06-10T02:39:56;8.13;;;5.47;;
23449;SDS011;11897;45.438;12.128;2023-06-10T02:42:23;8.20;;;5.27;;
23449;SDS011;11897;45.438;12.128;2023-06-10T02:44:51;8.03;;;5.27;;
23449;SDS011;11897;45.438;12.128;2023-06-10T02:47:32;7.90;;;5.37;;
23449;SDS011;11897;45.438;12.128;2023-06-10T02:49:59;9.47;;;5.00;;
23449;SDS011;11897;45.438;12.128;2023-06-10T02:52:28;6.97;;;4.70;;
23449;SDS011;11897;45.438;12.128;2023-06-10T02:54:55;8.60;;;5.57;;
23449;SDS011;11897;45.438;12.128;2023-06-10T02:57:22;5.53;;;4.73;;
23449;SDS011;11897;45.438;12.128;2023-06-10T02:59:48;7.03;;;5.13;;
23449;SDS011;11897;45.438;12.128;2023-06-10T03:02:16;9.20;;;5.50;;
23449;SDS011;11897;45.438;12.128;2023-06-10T03:04:49;7.30;;;5.00;;
23449;SDS011;11897;45.438;12.128;2023-06-10T03:07:19;8.10;;;4.87;;
23449;SDS011;11897;45.438;12.128;2023-06-10T03:09:47;6.23;;;4.63;;
23449;SDS011;11897;45.438;12.128;2023-06-10T03:12:14;7.03;;;4.27;;
23449;SDS011;11897;45.438;12.128;2023-06-10T03:14:45;8.13;;;4.63;;
23449;SDS011;11897;45.438;12.128;2023-06-10T03:17:11;6.40;;;4.40;;
23449;SDS011;11897;45.438;12.128;2023-06-10T03:19:41;8.17;;;4.97;;
23449;SDS011;11897;45.438;12.128;2023-06-10T03:22:10;7.00;;;4.97;;
23449;SDS011;11897;45.438;12.128;2023-06-10T03:24:47;9.30;;;4.90;;
23449;SDS011;11897;45.438;12.128;2023-06-10T03:27:16;7.17;;;4.50;;
23449;SDS011;11897;45.438;12.128;2023-06-10T03:29:49;10.40;;;4.27;;
23449;SDS011;11897;45.438;12.128;2023-06-10T03:32:16;8.40;;;4.70;;
23449;SDS011;11897;45.438;12.128;2023-06-10T03:34:43;6.73;;;4.20;;
23449;SDS011;11897;45.438;12.128;2023-06-10T03:37:13;7.37;;;4.63;;
23449;SDS011;11897;45.438;12.128;2023-06-10T03:39:41;8.07;;;4.40;;
23449;SDS011;11897;45.438;12.128;2023-06-10T03:42:08;5.87;;;4.17;;
23449;SDS011;11897;45.438;12.128;2023-06-10T03:44:35;9.97;;;4.77;;
23449;SDS011;11897;45.438;12.128;2023-06-10T03:47:02;7.60;;;5.20;;
23449;SDS011;11897;45.438;12.128;2023-06-10T03:49:29;7.07;;;4.03;;
23449;SDS011;11897;45.438;12.128;2023-06-10T03:52:00;6.23;;;4.47;;
23449;SDS011;11897;45.438;12.128;2023-06-10T03:54:28;5.60;;;4.23;;
23449;SDS011;11897;45.438;12.128;2023-06-10T03:56:54;7.37;;;4.73;;
23449;SDS011;11897;45.438;12.128;2023-06-10T03:59:22;5.93;;;4.60;;
23449;SDS011;11897;45.438;12.128;2023-06-10T04:01:48;6.20;;;4.90;;
23449;SDS011;11897;45.438;12.128;2023-06-10T04:04:15;7.30;;;4.63;;
23449;SDS011;11897;45.438;12.128;2023-06-10T04:06:43;8.13;;;4.97;;
23449;SDS011;11897;45.438;12.128;2023-06-10T04:09:10;6.90;;;5.37;;
23449;SDS011;11897;45.438;12.128;2023-06-10T04:11:39;7.10;;;5.33;;
23449;SDS011;11897;45.438;12.128;2023-06-10T04:14:06;9.03;;;4.80;;
23449;SDS011;11897;45.438;12.128;2023-06-10T04:16:34;8.83;;;5.23;;
23449;SDS011;11897;45.438;12.128;2023-06-10T04:19:02;6.50;;;4.60;;
23449;SDS011;11897;45.438;12.128;2023-06-10T04:21:28;11.03;;;4.70;;
23449;SDS011;11897;45.438;12.128;2023-06-10T04:23:56;9.20;;;4.80;;
23449;SDS011;11897;45.438;12.128;2023-06-10T04:26:23;6.67;;;4.77;;
23449;SDS011;11897;45.438;12.128;2023-06-10T04:28:53;11.13;;;5.47;;
23449;SDS011;11897;45.438;12.128;2023-06-10T04:31:19;10.83;;;5.47;;
23449;SDS011;11897;45.438;12.128;2023-06-10T04:33:47;10.93;;;5.60;;
23449;SDS011;11897;45.438;12.128;2023-06-10T04:36:14;10.67;;;5.50;;
23449;SDS011;11897;45.438;12.128;2023-06-10T04:38:41;9.47;;;5.53;;
23449;SDS011;11897;45.438;12.128;2023-06-10T04:41:08;9.73;;;6.10;;
23449;SDS011;11897;45.438;12.128;2023-06-10T04:43:36;10.37;;;5.63;;
23449;SDS011;11897;45.438;12.128;2023-06-10T04:46:05;8.53;;;5.70;;
23449;SDS011;11897;45.438;12.128;2023-06-10T04:48:32;10.87;;;5.87;;
23449;SDS011;11897;45.438;12.128;2023-06-10T04:51:00;14.70;;;6.33;;
23449;SDS011;11897;45.438;12.128;2023-06-10T04:53:30;8.90;;;6.27;;
23449;SDS011;11897;45.438;12.128;2023-06-10T04:55:57;8.83;;;6.70;;
23449;SDS011;11897;45.438;12.128;2023-06-10T04:58:24;9.27;;;5.90;;
23449;SDS011;11897;45.438;12.128;2023-06-10T05:00:50;10.30;;;5.53;;
23449;SDS011;11897;45.438;12.128;2023-06-10T05:03:18;8.87;;;6.60;;
23449;SDS011;11897;45.438;12.128;2023-06-10T05:05:45;11.20;;;6.17;;
23449;SDS011;11897;45.438;12.128;2023-06-10T05:08:12;11.30;;;6.97;;
23449;SDS011;11897;45.438;12.128;2023-06-10T05:10:38;11.07;;;7.03;;
23449;SDS011;11897;45.438;12.128;2023-06-10T05:13:05;12.53;;;7.10;;
23449;SDS011;11897;45.438;12.128;2023-06-10T05:15:32;10.63;;;6.83;;
23449;SDS011;11897;45.438;12.128;2023-06-10T05:17:58;10.63;;;7.23;;
23449;SDS011;11897;45.438;12.128;2023-06-10T05:20:29;8.70;;;6.13;;
23449;SDS011;11897;45.438;12.128;2023-06-10T05:22:55;9.43;;;6.43;;
23449;SDS011;11897;45.438;12.128;2023-06-10T05:25:22;14.00;;;7.30;;
23449;SDS011;11897;45.438;12.128;2023-06-10T05:27:49;8.60;;;6.23;;
23449;SDS011;11897;45.438;12.128;2023-06-10T05:30:16;13.90;;;6.33;;
23449;SDS011;11897;45.438;12.128;2023-06-10T05:32:44;8.60;;;6.63;;
23449;SDS011;11897;45.438;12.128;2023-06-10T05:35:10;8.37;;;6.30;;
23449;SDS011;11897;45.438;12.128;2023-06-10T05:37:39;11.17;;;6.37;;
23449;SDS011;11897;45.438;12.128;2023-06-10T05:40:06;12.43;;;6.20;;
23449;SDS011;11897;45.438;12.128;2023-06-10T05:42:32;11.63;;;6.43;;
23449;SDS011;11897;45.438;12.128;2023-06-10T05:44:59;8.70;;;6.90;;
23449;SDS011;11897;45.438;12.128;2023-06-10T05:47:26;10.83;;;6.60;;
23449;SDS011;11897;45.438;12.128;2023-06-10T05:49:52;11.13;;;7.83;;
23449;SDS011;11897;45.438;12.128;2023-06-10T05:52:19;11.23;;;7.90;;
23449;SDS011;11897;45.438;12.128;2023-06-10T05:54:48;15.40;;;10.13;;
23449;SDS011;11897;45.438;12.128;2023-06-10T05:57:14;10.47;;;7.90;;
23449;SDS011;11897;45.438;12.128;2023-06-10T05:59:41;12.87;;;7.90;;
23449;SDS011;11897;45.438;12.128;2023-06-10T06:02:07;11.23;;;7.87;;
23449;SDS011;11897;45.438;12.128;2023-06-10T06:04:34;8.63;;;6.10;;
23449;SDS011;11897;45.438;12.128;2023-06-10T06:07:01;10.88;;;7.10;;
23449;SDS011;11897;45.438;12.128;2023-06-10T06:09:27;9.55;;;6.35;;
23449;SDS011;11897;45.438;12.128;2023-06-10T06:11:56;7.88;;;5.85;;
23449;SDS011;11897;45.438;12.128;2023-06-10T06:14:22;11.20;;;6.53;;
23449;SDS011;11897;45.438;12.128;2023-06-10T06:16:49;11.00;;;6.60;;
23449;SDS011;11897;45.438;12.128;2023-06-10T06:19:15;8.40;;;6.10;;
23449;SDS011;11897;45.438;12.128;2023-06-10T06:21:42;9.98;;;6.40;;
23449;SDS011;11897;45.438;12.128;2023-06-10T06:24:09;9.43;;;6.45;;
23449;SDS011;11897;45.438;12.128;2023-06-10T06:26:35;9.25;;;6.50;;
23449;SDS011;11897;45.438;12.128;2023-06-10T06:29:03;10.43;;;6.68;;
23449;SDS011;11897;45.438;12.128;2023-06-10T06:31:30;10.32;;;6.55;;
23449;SDS011;11897;45.438;12.128;2023-06-10T06:33:57;9.82;;;6.35;;
23449;SDS011;11897;45.438;12.128;2023-06-10T06:36:23;10.00;;;7.43;;
23449;SDS011;11897;45.438;12.128;2023-06-10T06:38:50;11.02;;;7.32;;
23449;SDS011;11897;45.438;12.128;2023-06-10T06:41:18;8.02;;;6.30;;
23449;SDS011;11897;45.438;12.128;2023-06-10T06:43:44;9.63;;;6.63;;
23449;SDS011;11897;45.438;12.128;2023-06-10T06:46:26;8.57;;;6.10;;
23449;SDS011;11897;45.438;12.128;2023-06-10T06:48:53;8.07;;;6.35;;
23449;SDS011;11897;45.438;12.128;2023-06-10T06:51:20;8.35;;;6.38;;
23449;SDS011;11897;45.438;12.128;2023-06-10T06:53:47;12.45;;;6.97;;
23449;SDS011;11897;45.438;12.128;2023-06-10T06:56:15;11.95;;;6.45;;
23449;SDS011;11897;45.438;12.128;2023-06-10T06:58:42;9.45;;;7.30;;
23449;SDS011;11897;45.438;12.128;2023-06-10T07:01:09;8.13;;;6.35;;
23449;SDS011;11897;45.438;12.128;2023-06-10T07:03:37;11.38;;;6.78;;
23449;SDS011;11897;45.438;12.128;2023-06-10T07:06:04;10.07;;;7.40;;
23449;SDS011;11897;45.438;12.128;2023-06-10T07:08:31;12.25;;;7.55;;
23449;SDS011;11897;45.438;12.128;2023-06-10T07:10:57;9.18;;;6.93;;
23449;SDS011;11897;45.438;12.128;2023-06-10T07:13:24;10.02;;;7.53;;
23449;SDS011;11897;45.438;12.128;2023-06-10T07:15:51;9.73;;;7.05;;
23449;SDS011;11897;45.438;12.128;2023-06-10T07:18:17;11.25;;;6.82;;
23449;SDS011;11897;45.438;12.128;2023-06-10T07:20:45;10.05;;;7.43;;
23449;SDS011;11897;45.438;12.128;2023-06-10T07:23:12;9.70;;;6.93;;
23449;SDS011;11897;45.438;12.128;2023-06-10T07:25:39;9.93;;;7.10;;
23449;SDS011;11897;45.438;12.128;2023-06-10T07:28:07;8.57;;;6.32;;
23449;SDS011;11897;45.438;12.128;2023-06-10T07:30:33;10.85;;;6.95;;
23449;SDS011;11897;45.438;12.128;2023-06-10T07:33:00;9.35;;;6.22;;
23449;SDS011;11897;45.438;12.128;2023-06-10T07:35:27;8.02;;;5.90;;
23449;SDS011;11897;45.438;12.128;2023-06-10T07:37:55;8.68;;;6.40;;
23449;SDS011;11897;45.438;12.128;2023-06-10T07:40:22;10.35;;;6.97;;
23449;SDS011;11897;45.438;12.128;2023-06-10T07:42:48;11.60;;;7.50;;
23449;SDS011;11897;45.438;12.128;2023-06-10T07:45:15;11.93;;;8.82;;
23449;SDS011;11897;45.438;12.128;2023-06-10T07:47:42;12.98;;;9.32;;
23449;SDS011;11897;45.438;12.128;2023-06-10T07:50:09;15.85;;;9.68;;
23449;SDS011;11897;45.438;12.128;2023-06-10T07:52:36;17.02;;;10.13;;
23449;SDS011;11897;45.438;12.128;2023-06-10T07:55:04;14.15;;;9.60;;
23449;SDS011;11897;45.438;12.128;2023-06-10T07:57:31;17.13;;;11.13;;
23449;SDS011;11897;45.438;12.128;2023-06-10T08:00:01;19.85;;;10.95;;
23449;SDS011;11897;45.438;12.128;2023-06-10T08:02:49;20.45;;;10.75;;
23449;SDS011;11897;45.438;12.128;2023-06-10T08:05:16;18.83;;;11.18;;
23449;SDS011;11897;45.438;12.128;2023-06-10T08:07:44;15.93;;;10.50;;
23449;SDS011;11897;45.438;12.128;2023-06-10T08:10:13;17.83;;;10.82;;
23449;SDS011;11897;45.438;12.128;2023-06-10T08:12:39;15.82;;;10.05;;
23449;SDS011;11897;45.438;12.128;2023-06-10T08:15:06;18.83;;;11.02;;
23449;SDS011;11897;45.438;12.128;2023-06-10T08:17:33;17.75;;;10.82;;
23449;SDS011;11897;45.438;12.128;2023-06-10T08:20:01;17.55;;;11.15;;
23449;SDS011;11897;45.438;12.128;2023-06-10T08:22:29;16.38;;;10.68;;
23449;SDS011;11897;45.438;12.128;2023-06-10T08:24:56;16.60;;;12.15;;
23449;SDS011;11897;45.438;12.128;2023-06-10T08:27:25;16.55;;;10.85;;
23449;SDS011;11897;45.438;12.128;2023-06-10T08:29:51;16.50;;;10.73;;
23449;SDS011;11897;45.438;12.128;2023-06-10T08:32:18;18.05;;;11.38;;
23449;SDS011;11897;45.438;12.128;2023-06-10T08:34:45;15.57;;;10.70;;
23449;SDS011;11897;45.438;12.128;2023-06-10T08:37:12;18.25;;;11.48;;
23449;SDS011;11897;45.438;12.128;2023-06-10T08:39:38;16.13;;;11.23;;
23449;SDS011;11897;45.438;12.128;2023-06-10T08:42:09;17.13;;;11.07;;
23449;SDS011;11897;45.438;12.128;2023-06-10T08:44:38;18.35;;;11.30;;
23449;SDS011;11897;45.438;12.128;2023-06-10T08:47:07;18.40;;;12.05;;
23449;SDS011;11897;45.438;12.128;2023-06-10T08:49:37;17.40;;;11.63;;
23449;SDS011;11897;45.438;12.128;2023-06-10T08:52:05;19.35;;;11.98;;
23449;SDS011;11897;45.438;12.128;2023-06-10T08:54:33;16.73;;;11.35;;
23449;SDS011;11897;45.438;12.128;2023-06-10T08:57:03;16.98;;;12.02;;
23449;SDS011;11897;45.438;12.128;2023-06-10T08:59:32;18.17;;;12.02;;
23449;SDS011;11897;45.438;12.128;2023-06-10T09:02:00;19.65;;;11.68;;
23449;SDS011;11897;45.438;12.128;2023-06-10T09:04:28;19.45;;;12.88;;
23449;SDS011;11897;45.438;12.128;2023-06-10T09:06:55;20.35;;;12.40;;
23449;SDS011;11897;45.438;12.128;2023-06-10T09:09:22;20.95;;;12.52;;
23449;SDS011;11897;45.438;12.128;2023-06-10T09:11:49;20.00;;;12.73;;
23449;SDS011;11897;45.438;12.128;2023-06-10T09:14:15;18.80;;;12.15;;
23449;SDS011;11897;45.438;12.128;2023-06-10T09:16:42;19.67;;;12.63;;
23449;SDS011;11897;45.438;12.128;2023-06-10T09:19:12;17.27;;;11.77;;
23449;SDS011;11897;45.438;12.128;2023-06-10T09:21:40;20.05;;;12.85;;
23449;SDS011;11897;45.438;12.128;2023-06-10T09:24:07;21.25;;;13.10;;
23449;SDS011;11897;45.438;12.128;2023-06-10T09:26:33;24.83;;;13.75;;
23449;SDS011;11897;45.438;12.128;2023-06-10T09:29:03;23.95;;;14.35;;
23449;SDS011;11897;45.438;12.128;2023-06-10T09:31:30;23.70;;;15.57;;
23449;SDS011;11897;45.438;12.128;2023-06-10T09:34:04;24.08;;;14.23;;
23449;SDS011;11897;45.438;12.128;2023-06-10T09:36:32;21.55;;;13.65;;
23449;SDS011;11897;45.438;12.128;2023-06-10T09:39:00;23.98;;;14.48;;
23449;SDS011;11897;45.438;12.128;2023-06-10T09:41:31;20.08;;;12.68;;
23449;SDS011;11897;45.438;12.128;2023-06-10T09:43:58;20.67;;;13.30;;
23449;SDS011;11897;45.438;12.128;2023-06-10T09:46:25;20.77;;;12.35;;
23449;SDS011;11897;45.438;12.128;2023-06-10T09:48:57;24.73;;;14.13;;
23449;SDS011;11897;45.438;12.128;2023-06-10T09:51:24;20.50;;;12.68;;
23449;SDS011;11897;45.438;12.128;2023-06-10T09:53:52;22.45;;;14.13;;
23449;SDS011;11897;45.438;12.128;2023-06-10T09:56:19;18.50;;;13.02;;
23449;SDS011;11897;45.438;12.128;2023-06-10T09:58:46;17.90;;;13.23;;
23449;SDS011;11897;45.438;12.128;2023-06-10T10:01:13;22.75;;;13.35;;
23449;SDS011;11897;45.438;12.128;2023-06-10T10:03:43;20.15;;;13.95;;
23449;SDS011;11897;45.438;12.128;2023-06-10T10:06:10;23.75;;;14.10;;
23449;SDS011;11897;45.438;12.128;2023-06-10T10:08:38;23.13;;;14.07;;
23449;SDS011;11897;45.438;12.128;2023-06-10T10:11:06;22.02;;;14.63;;
23449;SDS011;11897;45.438;12.128;2023-06-10T10:13:33;19.90;;;13.73;;
23449;SDS011;11897;45.438;12.128;2023-06-10T10:16:01;23.25;;;13.77;;
23449;SDS011;11897;45.438;12.128;2023-06-10T10:18:31;20.70;;;13.30;;
23449;SDS011;11897;45.438;12.128;2023-06-10T10:21:00;21.30;;;13.27;;
23449;SDS011;11897;45.438;12.128;2023-06-10T10:23:29;21.83;;;13.05;;
23449;SDS011;11897;45.438;12.128;2023-06-10T10:25:59;21.00;;;13.52;;
23449;SDS011;11897;45.438;12.128;2023-06-10T10:28:29;23.15;;;14.10;;
23449;SDS011;11897;45.438;12.128;2023-06-10T10:31:05;21.83;;;13.48;;
23449;SDS011;11897;45.438;12.128;2023-06-10T10:33:36;19.27;;;11.70;;
23449;SDS011;11897;45.438;12.128;2023-06-10T10:36:05;19.90;;;12.32;;
23449;SDS011;11897;45.438;12.128;2023-06-10T10:38:33;19.83;;;11.68;;
23449;SDS011;11897;45.438;12.128;2023-06-10T10:41:00;16.67;;;11.82;;
23449;SDS011;11897;45.438;12.128;2023-06-10T10:43:29;17.17;;;11.95;;
23449;SDS011;11897;45.438;12.128;2023-06-10T10:45:57;16.02;;;11.15;;
23449;SDS011;11897;45.438;12.128;2023-06-10T10:48:24;16.10;;;9.95;;
23449;SDS011;11897;45.438;12.128;2023-06-10T10:50:55;15.10;;;9.98;;
23449;SDS011;11897;45.438;12.128;2023-06-10T10:53:22;14.63;;;10.48;;
23449;SDS011;11897;45.438;12.128;2023-06-10T10:55:57;14.68;;;10.73;;
23449;SDS011;11897;45.438;12.128;2023-06-10T10:58:24;15.73;;;9.65;;
23449;SDS011;11897;45.438;12.128;2023-06-10T11:00:52;12.80;;;9.60;;
23449;SDS011;11897;45.438;12.128;2023-06-10T11:03:19;14.48;;;9.57;;
23449;SDS011;11897;45.438;12.128;2023-06-10T11:05:48;14.68;;;9.80;;
23449;SDS011;11897;45.438;12.128;2023-06-10T11:11:17;13.05;;;9.38;;
23449;SDS011;11897;45.438;12.128;2023-06-10T11:13:48;15.07;;;10.43;;
23449;SDS011;11897;45.438;12.128;2023-06-10T11:16:25;13.20;;;9.35;;
23449;SDS011;11897;45.438;12.128;2023-06-10T11:18:53;17.48;;;9.50;;
23449;SDS011;11897;45.438;12.128;2023-06-10T11:21:20;15.10;;;10.00;;
23449;SDS011;11897;45.438;12.128;2023-06-10T11:23:46;17.83;;;11.32;;
23449;SDS011;11897;45.438;12.128;2023-06-10T11:26:16;22.40;;;13.15;;
23449;SDS011;11897;45.438;12.128;2023-06-10T11:29:04;17.23;;;11.77;;
23449;SDS011;11897;45.438;12.128;2023-06-10T11:31:36;15.90;;;11.18;;
23449;SDS011;11897;45.438;12.128;2023-06-10T11:34:05;17.08;;;12.20;;
23449;SDS011;11897;45.438;12.128;2023-06-10T11:36:32;17.52;;;11.75;;
23449;SDS011;11897;45.438;12.128;2023-06-10T11:39:00;18.85;;;12.63;;
23449;SDS011;11897;45.438;12.128;2023-06-10T11:41:29;20.90;;;12.15;;
23449;SDS011;11897;45.438;12.128;2023-06-10T11:43:56;20.15;;;12.38;;
23449;SDS011;11897;45.438;12.128;2023-06-10T11:46:23;16.05;;;11.88;;
23449;SDS011;11897;45.438;12.128;2023-06-10T11:48:53;20.88;;;11.48;;
23449;SDS011;11897;45.438;12.128;2023-06-10T11:51:20;20.83;;;13.25;;
23449;SDS011;11897;45.438;12.128;2023-06-10T11:53:47;19.73;;;13.02;;
23449;SDS011;11897;45.438;12.128;2023-06-10T11:56:18;19.25;;;12.65;;
23449;SDS011;11897;45.438;12.128;2023-06-10T11:58:45;18.30;;;12.55;;
23449;SDS011;11897;45.438;12.128;2023-06-10T12:01:19;17.10;;;11.65;;
23449;SDS011;11897;45.438;12.128;2023-06-10T12:03:46;17.05;;;11.05;;
23449;SDS011;11897;45.438;12.128;2023-06-10T12:06:14;17.83;;;12.02;;
23449;SDS011;11897;45.438;12.128;2023-06-10T12:08:41;18.88;;;10.77;;
23449;SDS011;11897;45.438;12.128;2023-06-10T12:11:08;14.00;;;10.60;;
23449;SDS011;11897;45.438;12.128;2023-06-10T12:13:34;14.13;;;9.90;;
23449;SDS011;11897;45.438;12.128;2023-06-10T12:16:07;15.52;;;10.73;;
23449;SDS011;11897;45.438;12.128;2023-06-10T12:18:35;14.45;;;10.13;;
23449;SDS011;11897;45.438;12.128;2023-06-10T12:21:01;15.25;;;10.57;;
23449;SDS011;11897;45.438;12.128;2023-06-10T12:23:30;12.90;;;8.93;;
23449;SDS011;11897;45.438;12.128;2023-06-10T12:25:57;13.98;;;9.02;;
23449;SDS011;11897;45.438;12.128;2023-06-10T12:28:26;15.90;;;9.90;;
23449;SDS011;11897;45.438;12.128;2023-06-10T12:31:05;11.05;;;7.60;;
23449;SDS011;11897;45.438;12.128;2023-06-10T12:33:33;13.18;;;8.38;;
23449;SDS011;11897;45.438;12.128;2023-06-10T12:35:59;10.85;;;8.25;;
23449;SDS011;11897;45.438;12.128;2023-06-10T12:38:26;11.02;;;7.45;;
23449;SDS011;11897;45.438;12.128;2023-06-10T12:40:59;8.95;;;6.72;;
23449;SDS011;11897;45.438;12.128;2023-06-10T12:43:27;8.80;;;5.70;;
23449;SDS011;11897;45.438;12.128;2023-06-10T12:45:54;5.72;;;4.43;;
23449;SDS011;11897;45.438;12.128;2023-06-10T12:48:21;7.18;;;4.57;;
23449;SDS011;11897;45.438;12.128;2023-06-10T12:50:50;7.47;;;4.55;;
23449;SDS011;11897;45.438;12.128;2023-06-10T12:53:17;4.00;;;3.08;;
23449;SDS011;11897;45.438;12.128;2023-06-10T12:55:45;5.13;;;3.53;;
23449;SDS011;11897;45.438;12.128;2023-06-10T12:58:13;3.95;;;2.78;;
23449;SDS011;11897;45.438;12.128;2023-06-10T13:00:40;5.05;;;2.88;;
23449;SDS011;11897;45.438;12.128;2023-06-10T13:03:07;3.70;;;2.88;;
23449;SDS011;11897;45.438;12.128;2023-06-10T13:05:35;2.70;;;2.25;;
23449;SDS011;11897;45.438;12.128;2023-06-10T13:08:02;4.65;;;1.90;;
23449;SDS011;11897;45.438;12.128;2023-06-10T13:10:29;3.50;;;2.08;;
23449;SDS011;11897;45.438;12.128;2023-06-10T13:12:56;3.60;;;2.00;;
23449;SDS011;11897;45.438;12.128;2023-06-10T13:15:23;3.35;;;1.77;;
23449;SDS011;11897;45.438;12.128;2023-06-10T13:17:51;4.13;;;1.92;;
23449;SDS011;11897;45.438;12.128;2023-06-10T13:20:18;2.45;;;2.13;;
23449;SDS011;11897;45.438;12.128;2023-06-10T13:22:45;2.63;;;2.15;;
23449;SDS011;11897;45.438;12.128;2023-06-10T13:25:13;3.38;;;2.53;;
23449;SDS011;11897;45.438;12.128;2023-06-10T13:27:39;3.22;;;2.20;;
23449;SDS011;11897;45.438;12.128;2023-06-10T13:30:07;3.95;;;2.25;;
23449;SDS011;11897;45.438;12.128;2023-06-10T13:32:36;3.45;;;2.13;;
23449;SDS011;11897;45.438;12.128;2023-06-10T13:35:03;3.38;;;2.17;;
23449;SDS011;11897;45.438;12.128;2023-06-10T13:37:31;3.70;;;2.88;;
23449;SDS011;11897;45.438;12.128;2023-06-10T13:40:01;4.60;;;2.67;;
23449;SDS011;11897;45.438;12.128;2023-06-10T13:42:29;5.20;;;2.53;;
23449;SDS011;11897;45.438;12.128;2023-06-10T13:44:55;3.40;;;2.55;;
23449;SDS011;11897;45.438;12.128;2023-06-10T13:47:22;2.67;;;2.22;;
23449;SDS011;11897;45.438;12.128;2023-06-10T13:49:51;5.78;;;2.80;;
23449;SDS011;11897;45.438;12.128;2023-06-10T13:52:17;3.45;;;2.15;;
23449;SDS011;11897;45.438;12.128;2023-06-10T13:54:44;2.00;;;1.80;;
23449;SDS011;11897;45.438;12.128;2023-06-10T13:57:11;4.18;;;1.95;;
23449;SDS011;11897;45.438;12.128;2023-06-10T13:59:38;3.08;;;1.70;;
23449;SDS011;11897;45.438;12.128;2023-06-10T14:02:04;4.65;;;1.70;;
23449;SDS011;11897;45.438;12.128;2023-06-10T14:04:31;1.90;;;1.23;;
23449;SDS011;11897;45.438;12.128;2023-06-10T14:06:59;2.47;;;1.45;;
23449;SDS011;11897;45.438;12.128;2023-06-10T14:09:29;5.82;;;1.00;;
23449;SDS011;11897;45.438;12.128;2023-06-10T14:11:58;1.20;;;0.95;;
23449;SDS011;11897;45.438;12.128;2023-06-10T14:14:27;2.08;;;1.10;;
23449;SDS011;11897;45.438;12.128;2023-06-10T14:16:53;1.58;;;1.00;;
23449;SDS011;11897;45.438;12.128;2023-06-10T14:19:20;3.03;;;1.05;;
23449;SDS011;11897;45.438;12.128;2023-06-10T14:21:47;0.95;;;0.88;;
23449;SDS011;11897;45.438;12.128;2023-06-10T14:24:16;1.23;;;0.90;;
23449;SDS011;11897;45.438;12.128;2023-06-10T14:26:42;2.30;;;1.02;;
23449;SDS011;11897;45.438;12.128;2023-06-10T14:29:09;3.03;;;1.70;;
23449;SDS011;11897;45.438;12.128;2023-06-10T14:31:39;3.13;;;1.20;;